sensor_id;sensor_type;location;lat;lon;timestamp;P1;durP1;ratioP1;P2;durP2;ratioP2
18853;SDS011;9556;49.374;19.446;2022-10-13T00:01:12;223.63;;;122.32;;
18853;SDS011;9556;49.374;19.446;2022-10-13T00:03:40;228.65;;;121.30;;
18853;SDS011;9556;49.374;19.446;2022-10-13T00:06:10;217.30;;;118.88;;
18853;SDS011;9556;49.374;19.446;2022-10-13T00:08:37;211.80;;;116.35;;
18853;SDS011;9556;49.374;19.446;2022-10-13T00:11:08;224.82;;;119.63;;
18853;SDS011;9556;49.374;19.446;2022-10-13T00:13:35;225.45;;;119.97;;
18853;SDS011;9556;49.374;19.446;2022-10-13T00:16:04;229.23;;;125.65;;
18853;SDS011;9556;49.374;19.446;2022-10-13T00:18:31;224.60;;;121.68;;
18853;SDS011;9556;49.374;19.446;2022-10-13T00:20:58;218.27;;;120.05;;
18853;SDS011;9556;49.374;19.446;2022-10-13T00:23:25;219.65;;;119.32;;
18853;SDS011;9556;49.374;19.446;2022-10-13T00:25:52;240.70;;;126.32;;
18853;SDS011;9556;49.374;19.446;2022-10-13T00:28:20;229.07;;;124.35;;
18853;SDS011;9556;49.374;19.446;2022-10-13T00:30:47;238.90;;;125.38;;
18853;SDS011;9556;49.374;19.446;2022-10-13T00:33:15;230.45;;;124.78;;
18853;SDS011;9556;49.374;19.446;2022-10-13T00:35:43;233.55;;;123.43;;
18853;SDS011;9556;49.374;19.446;2022-10-13T00:38:10;231.55;;;123.78;;
18853;SDS011;9556;49.374;19.446;2022-10-13T00:40:44;242.25;;;125.85;;
18853;SDS011;9556;49.374;19.446;2022-10-13T00:43:13;229.55;;;122.50;;
18853;SDS011;9556;49.374;19.446;2022-10-13T00:45:41;236.27;;;124.40;;
18853;SDS011;9556;49.374;19.446;2022-10-13T00:48:08;236.75;;;127.30;;
18853;SDS011;9556;49.374;19.446;2022-10-13T00:50:38;224.23;;;122.38;;
18853;SDS011;9556;49.374;19.446;2022-10-13T00:53:06;230.13;;;124.07;;
18853;SDS011;9556;49.374;19.446;2022-10-13T00:55:35;227.82;;;122.97;;
18853;SDS011;9556;49.374;19.446;2022-10-13T00:58:05;238.02;;;128.80;;
18853;SDS011;9556;49.374;19.446;2022-10-13T01:00:33;240.20;;;126.78;;
18853;SDS011;9556;49.374;19.446;2022-10-13T01:03:01;234.90;;;127.90;;
18853;SDS011;9556;49.374;19.446;2022-10-13T01:05:28;239.70;;;128.82;;
18853;SDS011;9556;49.374;19.446;2022-10-13T01:07:57;229.35;;;122.82;;
18853;SDS011;9556;49.374;19.446;2022-10-13T01:10:27;242.95;;;129.65;;
18853;SDS011;9556;49.374;19.446;2022-10-13T01:12:59;227.13;;;123.45;;
18853;SDS011;9556;49.374;19.446;2022-10-13T01:15:29;248.90;;;129.73;;
18853;SDS011;9556;49.374;19.446;2022-10-13T01:17:59;231.32;;;125.50;;
18853;SDS011;9556;49.374;19.446;2022-10-13T01:23:19;232.75;;;123.10;;
18853;SDS011;9556;49.374;19.446;2022-10-13T01:26:05;238.27;;;125.10;;
18853;SDS011;9556;49.374;19.446;2022-10-13T01:28:39;246.82;;;131.63;;
18853;SDS011;9556;49.374;19.446;2022-10-13T01:31:14;235.27;;;128.73;;
18853;SDS011;9556;49.374;19.446;2022-10-13T01:33:44;241.60;;;128.73;;
18853;SDS011;9556;49.374;19.446;2022-10-13T01:36:16;239.52;;;130.63;;
18853;SDS011;9556;49.374;19.446;2022-10-13T01:38:49;234.30;;;125.50;;
18853;SDS011;9556;49.374;19.446;2022-10-13T01:41:19;236.63;;;126.00;;
18853;SDS011;9556;49.374;19.446;2022-10-13T01:43:49;234.10;;;123.80;;
18853;SDS011;9556;49.374;19.446;2022-10-13T01:46:21;241.32;;;129.77;;
18853;SDS011;9556;49.374;19.446;2022-10-13T01:48:48;239.55;;;126.78;;
18853;SDS011;9556;49.374;19.446;2022-10-13T01:51:18;235.25;;;125.38;;
18853;SDS011;9556;49.374;19.446;2022-10-13T01:53:46;241.45;;;129.68;;
18853;SDS011;9556;49.374;19.446;2022-10-13T01:56:14;244.38;;;129.52;;
18853;SDS011;9556;49.374;19.446;2022-10-13T01:58:41;249.73;;;130.57;;
18853;SDS011;9556;49.374;19.446;2022-10-13T02:01:13;245.93;;;128.80;;
18853;SDS011;9556;49.374;19.446;2022-10-13T02:03:46;227.55;;;124.00;;
18853;SDS011;9556;49.374;19.446;2022-10-13T02:06:17;237.35;;;125.70;;
18853;SDS011;9556;49.374;19.446;2022-10-13T02:08:49;249.65;;;130.85;;
18853;SDS011;9556;49.374;19.446;2022-10-13T02:11:18;246.65;;;130.52;;
18853;SDS011;9556;49.374;19.446;2022-10-13T02:13:46;242.32;;;129.73;;
18853;SDS011;9556;49.374;19.446;2022-10-13T02:16:15;247.63;;;131.07;;
18853;SDS011;9556;49.374;19.446;2022-10-13T02:18:46;243.48;;;130.00;;
18853;SDS011;9556;49.374;19.446;2022-10-13T02:21:14;240.35;;;128.75;;
18853;SDS011;9556;49.374;19.446;2022-10-13T02:23:41;254.57;;;132.25;;
18853;SDS011;9556;49.374;19.446;2022-10-13T02:26:08;241.93;;;128.27;;
18853;SDS011;9556;49.374;19.446;2022-10-13T02:28:36;242.82;;;130.38;;
18853;SDS011;9556;49.374;19.446;2022-10-13T02:31:04;242.20;;;127.63;;
18853;SDS011;9556;49.374;19.446;2022-10-13T02:33:31;233.00;;;126.03;;
18853;SDS011;9556;49.374;19.446;2022-10-13T02:36:00;240.43;;;130.52;;
18853;SDS011;9556;49.374;19.446;2022-10-13T02:38:27;241.40;;;128.05;;
18853;SDS011;9556;49.374;19.446;2022-10-13T02:40:54;240.85;;;129.20;;
18853;SDS011;9556;49.374;19.446;2022-10-13T02:43:22;222.15;;;119.63;;
18853;SDS011;9556;49.374;19.446;2022-10-13T02:45:49;224.73;;;124.03;;
18853;SDS011;9556;49.374;19.446;2022-10-13T02:48:16;224.32;;;120.88;;
18853;SDS011;9556;49.374;19.446;2022-10-13T02:50:44;221.75;;;120.25;;
18853;SDS011;9556;49.374;19.446;2022-10-13T02:53:13;222.48;;;119.35;;
18853;SDS011;9556;49.374;19.446;2022-10-13T02:55:40;215.95;;;115.90;;
18853;SDS011;9556;49.374;19.446;2022-10-13T02:58:07;215.98;;;118.40;;
18853;SDS011;9556;49.374;19.446;2022-10-13T03:00:34;219.25;;;117.38;;
18853;SDS011;9556;49.374;19.446;2022-10-13T03:03:03;206.18;;;114.22;;
18853;SDS011;9556;49.374;19.446;2022-10-13T03:05:30;203.02;;;109.38;;
18853;SDS011;9556;49.374;19.446;2022-10-13T03:07:57;216.90;;;113.65;;
18853;SDS011;9556;49.374;19.446;2022-10-13T03:10:26;197.00;;;108.95;;
18853;SDS011;9556;49.374;19.446;2022-10-13T03:12:53;200.32;;;109.30;;
18853;SDS011;9556;49.374;19.446;2022-10-13T03:15:20;196.30;;;107.35;;
18853;SDS011;9556;49.374;19.446;2022-10-13T03:17:48;194.95;;;106.07;;
18853;SDS011;9556;49.374;19.446;2022-10-13T03:20:15;196.13;;;106.13;;
18853;SDS011;9556;49.374;19.446;2022-10-13T03:22:42;198.75;;;106.10;;
18853;SDS011;9556;49.374;19.446;2022-10-13T03:25:09;186.60;;;101.82;;
18853;SDS011;9556;49.374;19.446;2022-10-13T03:27:38;179.20;;;99.57;;
18853;SDS011;9556;49.374;19.446;2022-10-13T03:30:05;181.02;;;100.25;;
18853;SDS011;9556;49.374;19.446;2022-10-13T03:32:33;171.82;;;96.18;;
18853;SDS011;9556;49.374;19.446;2022-10-13T03:35:00;174.98;;;96.63;;
18853;SDS011;9556;49.374;19.446;2022-10-13T03:37:27;165.90;;;92.55;;
18853;SDS011;9556;49.374;19.446;2022-10-13T03:39:55;167.75;;;90.88;;
18853;SDS011;9556;49.374;19.446;2022-10-13T03:42:22;155.18;;;87.28;;
18853;SDS011;9556;49.374;19.446;2022-10-13T03:44:50;155.23;;;82.75;;
18853;SDS011;9556;49.374;19.446;2022-10-13T03:47:17;149.63;;;80.25;;
18853;SDS011;9556;49.374;19.446;2022-10-13T03:49:44;135.18;;;75.70;;
18853;SDS011;9556;49.374;19.446;2022-10-13T03:52:12;138.07;;;75.45;;
18853;SDS011;9556;49.374;19.446;2022-10-13T03:54:39;126.60;;;69.07;;
18853;SDS011;9556;49.374;19.446;2022-10-13T03:57:06;128.90;;;71.47;;
18853;SDS011;9556;49.374;19.446;2022-10-13T03:59:33;130.38;;;70.05;;
18853;SDS011;9556;49.374;19.446;2022-10-13T04:02:01;121.35;;;65.80;;
18853;SDS011;9556;49.374;19.446;2022-10-13T04:04:28;116.57;;;65.47;;
18853;SDS011;9556;49.374;19.446;2022-10-13T04:06:55;114.75;;;62.05;;
18853;SDS011;9556;49.374;19.446;2022-10-13T04:09:23;117.18;;;62.50;;
18853;SDS011;9556;49.374;19.446;2022-10-13T04:11:50;115.28;;;62.63;;
18853;SDS011;9556;49.374;19.446;2022-10-13T04:14:17;107.80;;;59.33;;
18853;SDS011;9556;49.374;19.446;2022-10-13T04:16:45;106.20;;;57.67;;
18853;SDS011;9556;49.374;19.446;2022-10-13T04:19:14;101.43;;;56.88;;
18853;SDS011;9556;49.374;19.446;2022-10-13T04:21:41;98.53;;;54.90;;
18853;SDS011;9556;49.374;19.446;2022-10-13T04:24:09;103.85;;;56.45;;
18853;SDS011;9556;49.374;19.446;2022-10-13T04:26:37;97.95;;;55.50;;
18853;SDS011;9556;49.374;19.446;2022-10-13T04:29:05;97.25;;;53.50;;
18853;SDS011;9556;49.374;19.446;2022-10-13T04:31:32;100.40;;;54.28;;
18853;SDS011;9556;49.374;19.446;2022-10-13T04:34:00;106.20;;;53.78;;
18853;SDS011;9556;49.374;19.446;2022-10-13T04:36:28;96.07;;;52.35;;
18853;SDS011;9556;49.374;19.446;2022-10-13T04:38:55;96.75;;;51.00;;
18853;SDS011;9556;49.374;19.446;2022-10-13T04:41:22;91.30;;;50.20;;
18853;SDS011;9556;49.374;19.446;2022-10-13T04:43:50;91.53;;;50.17;;
18853;SDS011;9556;49.374;19.446;2022-10-13T04:46:18;101.18;;;50.78;;
18853;SDS011;9556;49.374;19.446;2022-10-13T04:48:46;89.28;;;48.40;;
18853;SDS011;9556;49.374;19.446;2022-10-13T04:51:15;83.45;;;45.85;;
18853;SDS011;9556;49.374;19.446;2022-10-13T04:53:43;89.63;;;46.75;;
18853;SDS011;9556;49.374;19.446;2022-10-13T04:56:11;79.05;;;44.70;;
18853;SDS011;9556;49.374;19.446;2022-10-13T04:58:39;82.82;;;46.75;;
18853;SDS011;9556;49.374;19.446;2022-10-13T05:01:07;83.28;;;44.25;;
18853;SDS011;9556;49.374;19.446;2022-10-13T05:03:37;73.78;;;41.70;;
18853;SDS011;9556;49.374;19.446;2022-10-13T05:06:04;72.10;;;40.20;;
18853;SDS011;9556;49.374;19.446;2022-10-13T05:08:32;73.18;;;41.13;;
18853;SDS011;9556;49.374;19.446;2022-10-13T05:11:00;74.30;;;41.15;;
18853;SDS011;9556;49.374;19.446;2022-10-13T05:13:28;66.03;;;38.45;;
18853;SDS011;9556;49.374;19.446;2022-10-13T05:15:56;71.13;;;39.33;;
18853;SDS011;9556;49.374;19.446;2022-10-13T05:18:23;63.03;;;36.85;;
18853;SDS011;9556;49.374;19.446;2022-10-13T05:20:50;62.58;;;35.33;;
18853;SDS011;9556;49.374;19.446;2022-10-13T05:23:17;62.00;;;36.83;;
18853;SDS011;9556;49.374;19.446;2022-10-13T05:25:44;67.68;;;35.33;;
18853;SDS011;9556;49.374;19.446;2022-10-13T05:28:13;59.53;;;35.40;;
18853;SDS011;9556;49.374;19.446;2022-10-13T05:30:40;62.85;;;35.03;;
18853;SDS011;9556;49.374;19.446;2022-10-13T05:33:07;65.82;;;35.95;;
18853;SDS011;9556;49.374;19.446;2022-10-13T05:35:34;62.25;;;35.47;;
18853;SDS011;9556;49.374;19.446;2022-10-13T05:38:01;65.07;;;35.20;;
18853;SDS011;9556;49.374;19.446;2022-10-13T05:40:28;61.63;;;34.40;;
18853;SDS011;9556;49.374;19.446;2022-10-13T05:42:55;62.65;;;35.17;;
18853;SDS011;9556;49.374;19.446;2022-10-13T05:45:24;60.85;;;33.90;;
18853;SDS011;9556;49.374;19.446;2022-10-13T05:47:55;60.33;;;33.65;;
18853;SDS011;9556;49.374;19.446;2022-10-13T05:50:22;46.75;;;25.25;;
18853;SDS011;9556;49.374;19.446;2022-10-13T05:52:49;48.92;;;28.20;;
18853;SDS011;9556;49.374;19.446;2022-10-13T05:55:17;54.75;;;29.38;;
18853;SDS011;9556;49.374;19.446;2022-10-13T05:57:45;51.35;;;29.10;;
18853;SDS011;9556;49.374;19.446;2022-10-13T06:00:15;45.70;;;27.48;;
18853;SDS011;9556;49.374;19.446;2022-10-13T06:02:44;49.00;;;26.75;;
18853;SDS011;9556;49.374;19.446;2022-10-13T06:05:14;48.83;;;26.55;;
18853;SDS011;9556;49.374;19.446;2022-10-13T06:07:42;45.55;;;26.88;;
18853;SDS011;9556;49.374;19.446;2022-10-13T06:10:11;49.72;;;26.55;;
18853;SDS011;9556;49.374;19.446;2022-10-13T06:12:38;47.58;;;25.98;;
18853;SDS011;9556;49.374;19.446;2022-10-13T06:15:06;44.45;;;24.95;;
18853;SDS011;9556;49.374;19.446;2022-10-13T06:17:34;41.15;;;24.40;;
18853;SDS011;9556;49.374;19.446;2022-10-13T06:20:04;42.58;;;25.27;;
18853;SDS011;9556;49.374;19.446;2022-10-13T06:22:31;39.00;;;24.20;;
18853;SDS011;9556;49.374;19.446;2022-10-13T06:24:58;41.72;;;24.95;;
18853;SDS011;9556;49.374;19.446;2022-10-13T06:27:25;46.58;;;23.90;;
18853;SDS011;9556;49.374;19.446;2022-10-13T06:29:52;39.97;;;23.75;;
18853;SDS011;9556;49.374;19.446;2022-10-13T06:32:19;42.20;;;24.13;;
18853;SDS011;9556;49.374;19.446;2022-10-13T06:34:46;38.70;;;22.85;;
18853;SDS011;9556;49.374;19.446;2022-10-13T06:37:15;40.83;;;22.35;;
18853;SDS011;9556;49.374;19.446;2022-10-13T06:39:42;37.47;;;22.50;;
18853;SDS011;9556;49.374;19.446;2022-10-13T06:42:09;43.63;;;23.65;;
18853;SDS011;9556;49.374;19.446;2022-10-13T06:44:36;55.22;;;25.73;;
18853;SDS011;9556;49.374;19.446;2022-10-13T06:47:03;52.75;;;25.42;;
18853;SDS011;9556;49.374;19.446;2022-10-13T06:49:30;53.72;;;26.05;;
18853;SDS011;9556;49.374;19.446;2022-10-13T06:51:58;46.10;;;25.08;;
18853;SDS011;9556;49.374;19.446;2022-10-13T06:54:26;48.80;;;24.52;;
18853;SDS011;9556;49.374;19.446;2022-10-13T06:56:53;51.47;;;23.73;;
18853;SDS011;9556;49.374;19.446;2022-10-13T06:59:21;54.78;;;25.52;;
18853;SDS011;9556;49.374;19.446;2022-10-13T07:01:50;45.40;;;22.55;;
18853;SDS011;9556;49.374;19.446;2022-10-13T07:04:17;42.75;;;22.08;;
18853;SDS011;9556;49.374;19.446;2022-10-13T07:06:44;46.40;;;21.23;;
18853;SDS011;9556;49.374;19.446;2022-10-13T07:09:11;44.10;;;21.00;;
18853;SDS011;9556;49.374;19.446;2022-10-13T07:11:40;41.35;;;21.42;;
18853;SDS011;9556;49.374;19.446;2022-10-13T07:14:09;40.10;;;20.13;;
18853;SDS011;9556;49.374;19.446;2022-10-13T07:16:36;38.53;;;19.02;;
18853;SDS011;9556;49.374;19.446;2022-10-13T07:19:03;36.83;;;19.20;;
18853;SDS011;9556;49.374;19.446;2022-10-13T07:21:30;36.28;;;18.92;;
18853;SDS011;9556;49.374;19.446;2022-10-13T07:23:57;37.97;;;18.05;;
18853;SDS011;9556;49.374;19.446;2022-10-13T07:26:24;45.85;;;17.95;;
18853;SDS011;9556;49.374;19.446;2022-10-13T07:28:53;40.58;;;17.65;;
18853;SDS011;9556;49.374;19.446;2022-10-13T07:31:20;35.00;;;16.90;;
18853;SDS011;9556;49.374;19.446;2022-10-13T07:33:48;31.40;;;16.95;;
18853;SDS011;9556;49.374;19.446;2022-10-13T07:39:19;31.55;;;16.27;;
18853;SDS011;9556;49.374;19.446;2022-10-13T07:41:46;34.35;;;15.82;;
18853;SDS011;9556;49.374;19.446;2022-10-13T07:44:14;32.40;;;16.20;;
18853;SDS011;9556;49.374;19.446;2022-10-13T07:46:41;28.80;;;15.27;;
18853;SDS011;9556;49.374;19.446;2022-10-13T07:49:09;29.63;;;15.13;;
18853;SDS011;9556;49.374;19.446;2022-10-13T07:51:36;30.55;;;14.23;;
18853;SDS011;9556;49.374;19.446;2022-10-13T07:54:03;47.17;;;14.90;;
18853;SDS011;9556;49.374;19.446;2022-10-13T07:56:30;29.05;;;15.25;;
18853;SDS011;9556;49.374;19.446;2022-10-13T07:58:57;30.15;;;14.73;;
18853;SDS011;9556;49.374;19.446;2022-10-13T08:01:25;34.17;;;15.77;;
18853;SDS011;9556;49.374;19.446;2022-10-13T08:03:53;27.35;;;14.93;;
18853;SDS011;9556;49.374;19.446;2022-10-13T08:06:21;27.83;;;14.23;;
18853;SDS011;9556;49.374;19.446;2022-10-13T08:08:48;27.67;;;14.40;;
18853;SDS011;9556;49.374;19.446;2022-10-13T08:11:15;27.42;;;14.57;;
18853;SDS011;9556;49.374;19.446;2022-10-13T08:13:45;24.65;;;14.18;;
18853;SDS011;9556;49.374;19.446;2022-10-13T08:16:12;26.02;;;12.93;;
18853;SDS011;9556;49.374;19.446;2022-10-13T08:18:41;28.60;;;13.75;;
18853;SDS011;9556;49.374;19.446;2022-10-13T08:21:08;30.27;;;13.73;;
18853;SDS011;9556;49.374;19.446;2022-10-13T08:23:37;31.08;;;13.20;;
18853;SDS011;9556;49.374;19.446;2022-10-13T08:26:04;35.85;;;13.88;;
18853;SDS011;9556;49.374;19.446;2022-10-13T08:28:31;30.90;;;12.43;;
18853;SDS011;9556;49.374;19.446;2022-10-13T08:30:58;27.35;;;13.40;;
18853;SDS011;9556;49.374;19.446;2022-10-13T08:33:26;24.17;;;13.23;;
18853;SDS011;9556;49.374;19.446;2022-10-13T08:35:54;35.10;;;13.32;;
18853;SDS011;9556;49.374;19.446;2022-10-13T08:38:22;27.00;;;13.15;;
18853;SDS011;9556;49.374;19.446;2022-10-13T08:40:49;31.58;;;13.35;;
18853;SDS011;9556;49.374;19.446;2022-10-13T08:43:18;24.92;;;12.57;;
18853;SDS011;9556;49.374;19.446;2022-10-13T08:45:46;27.85;;;12.68;;
18853;SDS011;9556;49.374;19.446;2022-10-13T08:48:14;27.17;;;13.02;;
18853;SDS011;9556;49.374;19.446;2022-10-13T08:50:44;29.23;;;13.02;;
18853;SDS011;9556;49.374;19.446;2022-10-13T08:53:15;30.95;;;12.90;;
18853;SDS011;9556;49.374;19.446;2022-10-13T08:55:46;25.65;;;12.45;;
18853;SDS011;9556;49.374;19.446;2022-10-13T08:58:22;25.88;;;12.18;;
18853;SDS011;9556;49.374;19.446;2022-10-13T09:00:50;24.92;;;12.20;;
18853;SDS011;9556;49.374;19.446;2022-10-13T09:03:22;24.80;;;12.00;;
18853;SDS011;9556;49.374;19.446;2022-10-13T09:05:53;30.77;;;11.88;;
18853;SDS011;9556;49.374;19.446;2022-10-13T09:08:23;28.98;;;12.70;;
18853;SDS011;9556;49.374;19.446;2022-10-13T09:10:52;20.65;;;11.15;;
18853;SDS011;9556;49.374;19.446;2022-10-13T09:13:19;23.38;;;11.55;;
18853;SDS011;9556;49.374;19.446;2022-10-13T09:15:47;16.83;;;10.10;;
18853;SDS011;9556;49.374;19.446;2022-10-13T09:18:15;20.85;;;10.80;;
18853;SDS011;9556;49.374;19.446;2022-10-13T09:20:42;21.02;;;10.35;;
18853;SDS011;9556;49.374;19.446;2022-10-13T09:23:16;22.65;;;10.65;;
18853;SDS011;9556;49.374;19.446;2022-10-13T09:25:45;26.13;;;10.82;;
18853;SDS011;9556;49.374;19.446;2022-10-13T09:28:14;18.25;;;10.80;;
18853;SDS011;9556;49.374;19.446;2022-10-13T09:30:42;33.47;;;11.38;;
18853;SDS011;9556;49.374;19.446;2022-10-13T09:33:15;23.25;;;10.18;;
18853;SDS011;9556;49.374;19.446;2022-10-13T09:35:43;20.70;;;10.68;;
18853;SDS011;9556;49.374;19.446;2022-10-13T09:38:12;20.40;;;10.48;;
18853;SDS011;9556;49.374;19.446;2022-10-13T09:40:40;19.92;;;10.10;;
18853;SDS011;9556;49.374;19.446;2022-10-13T09:43:19;17.55;;;9.80;;
18853;SDS011;9556;49.374;19.446;2022-10-13T09:45:46;18.90;;;10.48;;
18853;SDS011;9556;49.374;19.446;2022-10-13T09:48:15;21.20;;;10.60;;
18853;SDS011;9556;49.374;19.446;2022-10-13T09:50:46;27.13;;;10.40;;
18853;SDS011;9556;49.374;19.446;2022-10-13T09:53:16;98.60;;;13.07;;
18853;SDS011;9556;49.374;19.446;2022-10-13T09:55:44;52.97;;;11.95;;
18853;SDS011;9556;49.374;19.446;2022-10-13T09:58:13;18.95;;;10.60;;
18853;SDS011;9556;49.374;19.446;2022-10-13T10:00:43;25.88;;;10.40;;
18853;SDS011;9556;49.374;19.446;2022-10-13T10:03:12;28.83;;;10.50;;
18853;SDS011;9556;49.374;19.446;2022-10-13T10:05:43;16.60;;;8.90;;
18853;SDS011;9556;49.374;19.446;2022-10-13T10:08:13;20.25;;;9.77;;
18853;SDS011;9556;49.374;19.446;2022-10-13T10:10:41;18.30;;;10.10;;
18853;SDS011;9556;49.374;19.446;2022-10-13T10:13:09;26.33;;;9.70;;
18853;SDS011;9556;49.374;19.446;2022-10-13T10:15:38;24.02;;;10.00;;
18853;SDS011;9556;49.374;19.446;2022-10-13T10:18:12;19.70;;;9.85;;
18853;SDS011;9556;49.374;19.446;2022-10-13T10:20:46;18.48;;;9.32;;
18853;SDS011;9556;49.374;19.446;2022-10-13T10:23:17;19.33;;;9.32;;
18853;SDS011;9556;49.374;19.446;2022-10-13T10:25:46;18.42;;;9.85;;
18853;SDS011;9556;49.374;19.446;2022-10-13T10:28:16;17.23;;;9.55;;
18853;SDS011;9556;49.374;19.446;2022-10-13T10:30:46;17.05;;;9.40;;
18853;SDS011;9556;49.374;19.446;2022-10-13T10:33:17;13.98;;;8.70;;
18853;SDS011;9556;49.374;19.446;2022-10-13T10:35:47;20.35;;;9.57;;
18853;SDS011;9556;49.374;19.446;2022-10-13T10:38:21;21.02;;;11.18;;
18853;SDS011;9556;49.374;19.446;2022-10-13T10:40:53;24.90;;;10.95;;
18853;SDS011;9556;49.374;19.446;2022-10-13T10:43:25;27.90;;;10.68;;
18853;SDS011;9556;49.374;19.446;2022-10-13T10:45:56;23.27;;;10.25;;
18853;SDS011;9556;49.374;19.446;2022-10-13T10:48:27;19.05;;;9.82;;
18853;SDS011;9556;49.374;19.446;2022-10-13T10:50:56;18.02;;;9.52;;
18853;SDS011;9556;49.374;19.446;2022-10-13T10:53:26;19.83;;;9.40;;
18853;SDS011;9556;49.374;19.446;2022-10-13T10:55:56;23.67;;;9.10;;
18853;SDS011;9556;49.374;19.446;2022-10-13T10:58:27;16.05;;;9.25;;
18853;SDS011;9556;49.374;19.446;2022-10-13T11:00:58;16.20;;;9.32;;
18853;SDS011;9556;49.374;19.446;2022-10-13T11:03:33;15.25;;;9.35;;
18853;SDS011;9556;49.374;19.446;2022-10-13T11:06:03;16.45;;;9.50;;
18853;SDS011;9556;49.374;19.446;2022-10-13T11:08:38;14.90;;;9.10;;
18853;SDS011;9556;49.374;19.446;2022-10-13T11:13:52;17.48;;;9.35;;
18853;SDS011;9556;49.374;19.446;2022-10-13T11:16:24;14.88;;;8.73;;
18853;SDS011;9556;49.374;19.446;2022-10-13T11:27:21;15.57;;;9.23;;
18853;SDS011;9556;49.374;19.446;2022-10-13T11:29:51;13.90;;;8.52;;
18853;SDS011;9556;49.374;19.446;2022-10-13T11:40:40;14.23;;;8.70;;
18853;SDS011;9556;49.374;19.446;2022-10-13T11:43:19;13.35;;;8.77;;
18853;SDS011;9556;49.374;19.446;2022-10-13T11:48:46;13.57;;;8.63;;
18853;SDS011;9556;49.374;19.446;2022-10-13T11:51:21;15.00;;;8.10;;
18853;SDS011;9556;49.374;19.446;2022-10-13T11:53:54;14.05;;;8.93;;
18853;SDS011;9556;49.374;19.446;2022-10-13T11:56:31;13.98;;;9.35;;
18853;SDS011;9556;49.374;19.446;2022-10-13T11:59:00;18.50;;;9.00;;
18853;SDS011;9556;49.374;19.446;2022-10-13T12:01:27;12.38;;;8.15;;
18853;SDS011;9556;49.374;19.446;2022-10-13T12:03:54;12.25;;;8.65;;
18853;SDS011;9556;49.374;19.446;2022-10-13T12:06:26;14.77;;;9.05;;
18853;SDS011;9556;49.374;19.446;2022-10-13T12:08:57;13.27;;;8.85;;
18853;SDS011;9556;49.374;19.446;2022-10-13T12:11:27;14.40;;;8.88;;
18853;SDS011;9556;49.374;19.446;2022-10-13T12:13:54;27.65;;;9.68;;
18853;SDS011;9556;49.374;19.446;2022-10-13T12:16:23;23.95;;;8.70;;
18853;SDS011;9556;49.374;19.446;2022-10-13T12:18:50;19.58;;;9.18;;
18853;SDS011;9556;49.374;19.446;2022-10-13T12:21:18;20.17;;;9.52;;
18853;SDS011;9556;49.374;19.446;2022-10-13T12:23:46;25.85;;;9.30;;
18853;SDS011;9556;49.374;19.446;2022-10-13T12:26:14;22.13;;;8.57;;
18853;SDS011;9556;49.374;19.446;2022-10-13T12:28:43;26.92;;;9.77;;
18853;SDS011;9556;49.374;19.446;2022-10-13T12:31:16;21.35;;;8.25;;
18853;SDS011;9556;49.374;19.446;2022-10-13T12:33:50;22.05;;;9.13;;
18853;SDS011;9556;49.374;19.446;2022-10-13T12:36:17;17.58;;;8.85;;
18853;SDS011;9556;49.374;19.446;2022-10-13T12:38:46;24.08;;;9.02;;
18853;SDS011;9556;49.374;19.446;2022-10-13T12:41:15;19.35;;;8.98;;
18853;SDS011;9556;49.374;19.446;2022-10-13T12:43:43;27.85;;;8.52;;
18853;SDS011;9556;49.374;19.446;2022-10-13T12:46:11;35.22;;;9.60;;
18853;SDS011;9556;49.374;19.446;2022-10-13T12:48:38;36.20;;;9.50;;
18853;SDS011;9556;49.374;19.446;2022-10-13T12:51:16;32.92;;;8.45;;
18853;SDS011;9556;49.374;19.446;2022-10-13T12:53:44;21.48;;;8.50;;
18853;SDS011;9556;49.374;19.446;2022-10-13T12:56:25;22.58;;;8.68;;
18853;SDS011;9556;49.374;19.446;2022-10-13T12:58:52;24.92;;;8.43;;
18853;SDS011;9556;49.374;19.446;2022-10-13T13:01:23;23.08;;;8.10;;
18853;SDS011;9556;49.374;19.446;2022-10-13T13:03:55;19.73;;;8.27;;
18853;SDS011;9556;49.374;19.446;2022-10-13T13:06:26;18.77;;;8.27;;
18853;SDS011;9556;49.374;19.446;2022-10-13T13:14:46;17.90;;;8.55;;
18853;SDS011;9556;49.374;19.446;2022-10-13T13:17:20;20.83;;;8.32;;
18853;SDS011;9556;49.374;19.446;2022-10-13T13:19:48;19.38;;;8.10;;
18853;SDS011;9556;49.374;19.446;2022-10-13T13:22:17;21.15;;;8.52;;
18853;SDS011;9556;49.374;19.446;2022-10-13T13:24:45;18.00;;;7.97;;
18853;SDS011;9556;49.374;19.446;2022-10-13T13:27:15;28.40;;;9.05;;
18853;SDS011;9556;49.374;19.446;2022-10-13T13:29:43;18.88;;;8.07;;
18853;SDS011;9556;49.374;19.446;2022-10-13T13:32:11;23.38;;;8.52;;
18853;SDS011;9556;49.374;19.446;2022-10-13T13:34:38;20.45;;;8.27;;
18853;SDS011;9556;49.374;19.446;2022-10-13T13:37:05;24.80;;;8.40;;
18853;SDS011;9556;49.374;19.446;2022-10-13T13:39:36;20.58;;;8.18;;
18853;SDS011;9556;49.374;19.446;2022-10-13T13:42:03;21.65;;;8.13;;
18853;SDS011;9556;49.374;19.446;2022-10-13T13:44:30;19.02;;;8.65;;
18853;SDS011;9556;49.374;19.446;2022-10-13T13:46:58;23.75;;;8.48;;
18853;SDS011;9556;49.374;19.446;2022-10-13T13:49:25;24.48;;;7.63;;
18853;SDS011;9556;49.374;19.446;2022-10-13T13:51:52;20.95;;;8.30;;
18853;SDS011;9556;49.374;19.446;2022-10-13T13:54:19;17.25;;;7.47;;
18853;SDS011;9556;49.374;19.446;2022-10-13T13:56:47;13.30;;;7.68;;
18853;SDS011;9556;49.374;19.446;2022-10-13T13:59:15;18.55;;;8.52;;
18853;SDS011;9556;49.374;19.446;2022-10-13T14:01:42;17.27;;;8.00;;
18853;SDS011;9556;49.374;19.446;2022-10-13T14:04:09;21.98;;;7.70;;
18853;SDS011;9556;49.374;19.446;2022-10-13T14:06:36;13.05;;;7.55;;
18853;SDS011;9556;49.374;19.446;2022-10-13T14:09:03;13.85;;;7.25;;
18853;SDS011;9556;49.374;19.446;2022-10-13T14:11:31;17.98;;;7.65;;
18853;SDS011;9556;49.374;19.446;2022-10-13T14:13:59;15.13;;;7.72;;
18853;SDS011;9556;49.374;19.446;2022-10-13T14:16:26;23.90;;;7.78;;
18853;SDS011;9556;49.374;19.446;2022-10-13T14:18:55;22.52;;;8.20;;
18853;SDS011;9556;49.374;19.446;2022-10-13T14:21:22;13.20;;;6.82;;
18853;SDS011;9556;49.374;19.446;2022-10-13T14:23:49;15.45;;;6.95;;
18853;SDS011;9556;49.374;19.446;2022-10-13T14:26:16;28.17;;;7.70;;
18853;SDS011;9556;49.374;19.446;2022-10-13T14:28:43;15.55;;;7.57;;
18853;SDS011;9556;49.374;19.446;2022-10-13T14:31:12;18.70;;;8.10;;
18853;SDS011;9556;49.374;19.446;2022-10-13T14:33:39;15.68;;;6.97;;
18853;SDS011;9556;49.374;19.446;2022-10-13T14:36:07;16.58;;;6.90;;
18853;SDS011;9556;49.374;19.446;2022-10-13T14:38:34;14.85;;;7.40;;
18853;SDS011;9556;49.374;19.446;2022-10-13T14:41:03;14.68;;;6.93;;
18853;SDS011;9556;49.374;19.446;2022-10-13T14:43:30;18.10;;;7.10;;
18853;SDS011;9556;49.374;19.446;2022-10-13T14:45:59;12.85;;;7.35;;
18853;SDS011;9556;49.374;19.446;2022-10-13T14:48:29;15.25;;;6.90;;
18853;SDS011;9556;49.374;19.446;2022-10-13T14:50:57;17.42;;;6.82;;
18853;SDS011;9556;49.374;19.446;2022-10-13T14:53:24;15.50;;;6.63;;
18853;SDS011;9556;49.374;19.446;2022-10-13T14:55:52;17.92;;;6.85;;
18853;SDS011;9556;49.374;19.446;2022-10-13T14:58:19;22.13;;;7.30;;
18853;SDS011;9556;49.374;19.446;2022-10-13T15:00:46;19.05;;;7.05;;